Time;durP1;ratioP1;P1;durP2;ratioP2;P2;SDS_P1;SDS_P2;PMS_P1;PMS_P2;Temp;Humidity;BMP_temperature;BMP_pressure;BME280_temperature;BME280_humidity;BME280_pressure;Samples;Min_cycle;Max_cycle;Signal;HPM_P1;HPM_P2
2023/01/19 00:00:29;;;;;;;9.37;5.77;;;;;;;;;;5050270;28;20087;-65
2023/01/19 00:02:55;;;;;;;8.50;5.37;;;;;;;;;;5064817;28;20037;-65
2023/01/19 00:05:21;;;;;;;9.23;5.63;;;;;;;;;;5069937;28;20101;-64
2023/01/19 00:07:47;;;;;;;9.20;6.00;;;;;;;;;;5060778;28;20044;-65
2023/01/19 00:10:13;;;;;;;9.00;5.47;;;;;;;;;;5049957;28;20045;-64
2023/01/19 00:12:39;;;;;;;8.17;5.97;;;;;;;;;;5049986;28;20106;-65
2023/01/19 00:15:05;;;;;;;8.83;5.73;;;;;;;;;;5050119;28;20789;-65
2023/01/19 00:17:31;;;;;;;7.57;5.53;;;;;;;;;;5049956;28;20045;-65
2023/01/19 00:19:57;;;;;;;8.23;5.37;;;;;;;;;;5048335;28;20410;-65
2023/01/19 00:22:23;;;;;;;5.33;3.70;;;;;;;;;;5050513;28;20128;-64
2023/01/19 00:24:49;;;;;;;6.73;4.47;;;;;;;;;;5031944;28;20295;-65
2023/01/19 00:27:15;;;;;;;6.60;3.73;;;;;;;;;;5049907;28;20098;-64
2023/01/19 00:29:42;;;;;;;5.27;3.40;;;;;;;;;;5047187;28;20076;-65
2023/01/19 00:32:08;;;;;;;6.63;4.27;;;;;;;;;;5049718;28;20053;-65
2023/01/19 00:34:38;;;;;;;5.90;3.50;;;;;;;;;;5047970;28;20283;-64
2023/01/19 00:37:05;;;;;;;6.07;3.40;;;;;;;;;;5047588;28;20813;-65
2023/01/19 00:39:31;;;;;;;7.20;4.27;;;;;;;;;;5049608;28;20048;-65
2023/01/19 00:44:42;;;;;;;6.83;4.20;;;;;;;;;;5048865;28;20213;-65
2023/01/19 00:47:08;;;;;;;11.00;5.77;;;;;;;;;;5060689;28;20890;-65
2023/01/19 00:49:34;;;;;;;9.73;5.80;;;;;;;;;;5049337;28;20341;-65
2023/01/19 00:52:00;;;;;;;14.50;7.50;;;;;;;;;;5049120;28;20771;-65
2023/01/19 00:54:26;;;;;;;11.67;7.70;;;;;;;;;;5049114;28;20283;-65
2023/01/19 00:56:52;;;;;;;17.37;10.80;;;;;;;;;;5048622;28;20120;-64
2023/01/19 00:59:18;;;;;;;16.57;11.23;;;;;;;;;;5049142;28;20132;-64
2023/01/19 01:01:45;;;;;;;21.17;12.47;;;;;;;;;;5053288;28;20169;-65
2023/01/19 01:04:12;;;;;;;20.87;14.13;;;;;;;;;;5069075;28;20302;-65
2023/01/19 01:06:38;;;;;;;24.57;14.30;;;;;;;;;;5069060;28;21206;-64
2023/01/19 01:09:10;;;;;;;30.73;16.00;;;;;;;;;;5051610;28;20381;-65
2023/01/19 01:11:38;;;;;;;32.90;16.87;;;;;;;;;;5048903;28;20124;-65
2023/01/19 01:14:05;;;;;;;28.37;17.13;;;;;;;;;;5048623;28;20813;-65
2023/01/19 01:16:31;;;;;;;22.70;14.57;;;;;;;;;;5049181;28;20291;-64
2023/01/19 01:18:57;;;;;;;41.67;19.83;;;;;;;;;;5030777;28;20037;-64
2023/01/19 01:21:23;;;;;;;33.57;18.27;;;;;;;;;;5047470;28;20056;-64
2023/01/19 01:23:49;;;;;;;28.53;17.23;;;;;;;;;;5048320;28;20495;-64
2023/01/19 01:26:15;;;;;;;33.63;19.13;;;;;;;;;;5048745;28;20280;-65
2023/01/19 01:28:41;;;;;;;30.47;19.00;;;;;;;;;;5048411;28;20292;-64
2023/01/19 01:31:07;;;;;;;34.73;17.80;;;;;;;;;;5051989;28;20060;-64
2023/01/19 01:33:34;;;;;;;26.50;17.57;;;;;;;;;;5048331;28;20804;-65
2023/01/19 01:36:00;;;;;;;37.97;19.87;;;;;;;;;;5054518;28;20310;-65
2023/01/19 01:38:26;;;;;;;33.90;19.87;;;;;;;;;;5068681;28;20282;-64
2023/01/19 01:40:52;;;;;;;42.43;23.37;;;;;;;;;;5064953;28;20305;-64
2023/01/19 01:43:19;;;;;;;33.37;21.63;;;;;;;;;;5050941;28;20300;-64
2023/01/19 01:45:45;;;;;;;39.97;21.90;;;;;;;;;;5052547;28;20275;-65
2023/01/19 01:48:11;;;;;;;37.93;23.03;;;;;;;;;;5052601;28;20292;-64
2023/01/19 01:53:42;;;;;;;37.03;24.90;;;;;;;;;;5052033;28;20314;-64
2023/01/19 01:56:11;;;;;;;41.63;25.90;;;;;;;;;;5034257;28;20518;-64
2023/01/19 01:58:37;;;;;;;42.23;25.40;;;;;;;;;;5052045;28;20303;-65
2023/01/19 02:03:48;;;;;;;53.03;27.37;;;;;;;;;;5052191;28;20041;-65
2023/01/19 02:06:14;;;;;;;50.10;28.13;;;;;;;;;;5052558;28;20386;-65
2023/01/19 02:14:17;;;;;;;43.27;26.50;;;;;;;;;;5071179;28;20287;-65
2023/01/19 02:16:44;;;;;;;41.93;27.67;;;;;;;;;;5072434;28;20049;-65
2023/01/19 02:19:13;;;;;;;48.20;25.97;;;;;;;;;;5072260;28;20127;-64
2023/01/19 02:21:51;;;;;;;42.73;25.27;;;;;;;;;;5071717;28;20049;-65
2023/01/19 02:24:18;;;;;;;38.40;23.53;;;;;;;;;;5072024;28;20045;-65
2023/01/19 02:26:45;;;;;;;46.47;24.37;;;;;;;;;;5065806;28;20479;-65
2023/01/19 02:29:14;;;;;;;49.87;27.03;;;;;;;;;;5051277;28;20048;-66
2023/01/19 02:31:41;;;;;;;47.63;25.33;;;;;;;;;;5050070;28;20039;-65
2023/01/19 02:34:08;;;;;;;44.60;24.77;;;;;;;;;;5051784;28;20048;-66
2023/01/19 02:36:53;;;;;;;44.37;26.23;;;;;;;;;;5051085;28;20049;-65
2023/01/19 02:39:20;;;;;;;40.33;26.33;;;;;;;;;;5051177;28;20055;-65
2023/01/19 02:41:48;;;;;;;36.90;23.37;;;;;;;;;;5050073;28;20103;-66
2023/01/19 02:44:15;;;;;;;40.50;24.70;;;;;;;;;;5051145;28;20822;-65
2023/01/19 02:46:41;;;;;;;39.53;23.57;;;;;;;;;;5051188;28;20279;-65
2023/01/19 02:49:07;;;;;;;43.43;26.33;;;;;;;;;;5062060;28;20331;-65
2023/01/19 02:51:33;;;;;;;54.50;28.93;;;;;;;;;;5053435;28;20574;-65
2023/01/19 02:54:29;;;;;;;45.20;29.07;;;;;;;;;;5071152;28;20314;-65
2023/01/19 02:57:05;;;;;;;49.23;27.33;;;;;;;;;;5034061;28;20053;-65
2023/01/19 02:59:44;;;;;;;52.50;32.03;;;;;;;;;;5063150;28;20041;-65
2023/01/19 03:02:10;;;;;;;58.07;31.43;;;;;;;;;;5051932;28;20041;-65
2023/01/19 03:04:55;;;;;;;60.93;30.57;;;;;;;;;;5051640;28;20048;-66
2023/01/19 03:07:27;;;;;;;50.17;28.97;;;;;;;;;;5052120;28;20102;-66
2023/01/19 03:09:58;;;;;;;72.07;31.10;;;;;;;;;;5051850;28;20291;-66
2023/01/19 03:12:40;;;;;;;56.00;28.90;;;;;;;;;;5052570;28;20514;-66
2023/01/19 03:15:26;;;;;;;59.00;30.00;;;;;;;;;;5058466;28;20338;-66
2023/01/19 03:17:53;;;;;;;53.90;29.10;;;;;;;;;;5051576;28;20634;-66
2023/01/19 03:20:23;;;;;;;45.33;28.83;;;;;;;;;;5051813;28;20555;-65
2023/01/19 03:22:52;;;;;;;47.03;25.40;;;;;;;;;;5051171;28;20319;-65
2023/01/19 03:25:19;;;;;;;53.70;25.97;;;;;;;;;;5052094;28;20296;-65
2023/01/19 03:27:46;;;;;;;45.03;25.20;;;;;;;;;;5058367;28;20349;-65
2023/01/19 03:30:15;;;;;;;40.63;23.37;;;;;;;;;;5053314;28;20287;-66
2023/01/19 03:32:44;;;;;;;42.40;22.23;;;;;;;;;;5071493;28;20444;-66
2023/01/19 03:35:12;;;;;;;47.60;24.20;;;;;;;;;;5066565;28;20048;-66
2023/01/19 03:37:40;;;;;;;37.23;23.27;;;;;;;;;;5051898;28;20658;-67
2023/01/19 03:40:07;;;;;;;46.70;23.93;;;;;;;;;;5033695;28;20307;-66
2023/01/19 03:42:33;;;;;;;39.10;23.17;;;;;;;;;;5051266;28;20075;-67
2023/01/19 03:45:00;;;;;;;48.93;24.23;;;;;;;;;;5050559;28;21027;-67
2023/01/19 03:47:27;;;;;;;49.00;24.57;;;;;;;;;;5051055;28;20053;-67
2023/01/19 03:49:53;;;;;;;40.50;21.30;;;;;;;;;;5051187;28;20264;-68
2023/01/19 03:52:27;;;;;;;35.30;19.33;;;;;;;;;;5050938;28;20312;-68
2023/01/19 03:54:53;;;;;;;44.25;20.73;;;;;;;;;;5049807;28;20292;-67
2023/01/19 03:57:19;;;;;;;42.93;19.37;;;;;;;;;;5049932;28;20074;-67
2023/01/19 03:59:45;;;;;;;29.00;16.00;;;;;;;;;;5050491;28;20294;-66
2023/01/19 04:02:11;;;;;;;31.40;16.23;;;;;;;;;;5051176;28;20284;-66
2023/01/19 04:04:37;;;;;;;42.07;17.67;;;;;;;;;;5050175;28;20291;-66
2023/01/19 04:07:03;;;;;;;32.47;16.03;;;;;;;;;;5049576;28;20334;-66
2023/01/19 04:09:29;;;;;;;38.73;16.63;;;;;;;;;;5070160;28;20053;-66
2023/01/19 04:11:56;;;;;;;38.63;17.47;;;;;;;;;;5070215;28;20352;-66
2023/01/19 04:14:22;;;;;;;30.80;14.37;;;;;;;;;;5070252;28;20286;-67
2023/01/19 04:16:48;;;;;;;31.27;15.10;;;;;;;;;;5070188;28;20848;-66
2023/01/19 04:19:14;;;;;;;31.60;13.80;;;;;;;;;;5059495;28;20303;-66
2023/01/19 04:21:40;;;;;;;36.50;14.97;;;;;;;;;;5048938;28;20646;-66
2023/01/19 04:24:06;;;;;;;33.77;13.93;;;;;;;;;;5049499;28;20298;-66
2023/01/19 04:26:32;;;;;;;30.83;13.53;;;;;;;;;;5050760;28;20284;-66
2023/01/19 04:28:58;;;;;;;45.93;16.17;;;;;;;;;;5048755;28;20295;-66
2023/01/19 04:31:24;;;;;;;48.83;17.00;;;;;;;;;;5050566;28;20291;-66
2023/01/19 04:33:51;;;;;;;44.37;17.47;;;;;;;;;;5049828;28;20926;-65
2023/01/19 04:36:17;;;;;;;45.30;18.90;;;;;;;;;;5059158;28;20384;-65
2023/01/19 04:38:45;;;;;;;40.37;16.67;;;;;;;;;;5048704;28;20049;-66
2023/01/19 04:41:11;;;;;;;41.20;16.90;;;;;;;;;;5048534;28;20291;-66
2023/01/19 04:43:37;;;;;;;62.90;20.43;;;;;;;;;;5049658;28;20283;-66
2023/01/19 04:46:03;;;;;;;37.03;16.47;;;;;;;;;;5048325;28;20627;-66
2023/01/19 04:48:29;;;;;;;37.57;15.47;;;;;;;;;;5049256;28;20305;-67
2023/01/19 04:50:55;;;;;;;28.50;13.53;;;;;;;;;;5053930;28;20366;-66
2023/01/19 04:53:22;;;;;;;37.23;14.17;;;;;;;;;;5051561;28;20349;-66
2023/01/19 04:55:52;;;;;;;20.93;10.27;;;;;;;;;;5068084;28;20911;-66
2023/01/19 04:58:18;;;;;;;34.50;12.67;;;;;;;;;;5068486;28;20344;-66
2023/01/19 05:00:44;;;;;;;19.40;8.27;;;;;;;;;;5055276;28;20049;-66
2023/01/19 05:03:11;;;;;;;24.10;8.90;;;;;;;;;;5048961;28;20052;-67
2023/01/19 05:05:37;;;;;;;21.13;7.90;;;;;;;;;;5049958;28;20511;-67
2023/01/19 05:08:03;;;;;;;16.50;5.80;;;;;;;;;;5049494;28;20280;-66
2023/01/19 05:10:29;;;;;;;18.60;4.27;;;;;;;;;;5050299;28;20300;-65
2023/01/19 05:12:55;;;;;;;21.50;4.37;;;;;;;;;;5048279;28;20053;-67
2023/01/19 05:15:21;;;;;;;17.70;4.50;;;;;;;;;;5049454;28;20633;-66
2023/01/19 05:17:47;;;;;;;23.07;4.67;;;;;;;;;;5048610;28;20128;-66
2023/01/19 05:20:16;;;;;;;15.03;2.93;;;;;;;;;;5049352;28;20052;-66
2023/01/19 05:22:42;;;;;;;18.90;2.80;;;;;;;;;;5048867;28;20119;-65
2023/01/19 05:25:08;;;;;;;24.73;2.87;;;;;;;;;;5049594;28;20129;-66
2023/01/19 05:27:34;;;;;;;14.57;2.27;;;;;;;;;;5049271;28;20048;-65
2023/01/19 05:30:00;;;;;;;25.70;2.40;;;;;;;;;;5049243;28;20221;-66
2023/01/19 05:32:26;;;;;;;13.57;1.63;;;;;;;;;;5049215;28;20140;-67
2023/01/19 05:34:52;;;;;;;13.17;1.10;;;;;;;;;;5049047;28;20091;-66
2023/01/19 05:37:18;;;;;;;12.13;2.00;;;;;;;;;;5049147;28;20283;-66
2023/01/19 05:39:45;;;;;;;11.13;1.33;;;;;;;;;;5048672;28;20045;-66
2023/01/19 05:42:11;;;;;;;9.63;1.20;;;;;;;;;;5053837;28;20051;-66
2023/01/19 05:44:37;;;;;;;12.80;1.30;;;;;;;;;;5068781;28;20051;-66
2023/01/19 05:47:03;;;;;;;4.73;0.93;;;;;;;;;;5067552;28;20499;-66
2023/01/19 05:49:30;;;;;;;10.30;1.00;;;;;;;;;;5069416;28;20126;-66
2023/01/19 05:51:56;;;;;;;8.93;1.37;;;;;;;;;;5067306;28;20109;-66
2023/01/19 05:54:22;;;;;;;7.47;1.63;;;;;;;;;;5068173;28;20052;-65
2023/01/19 05:56:48;;;;;;;8.10;1.27;;;;;;;;;;5069063;28;20044;-65
2023/01/19 05:59:16;;;;;;;8.57;1.00;;;;;;;;;;5069037;28;20434;-65
2023/01/19 06:01:42;;;;;;;8.73;1.37;;;;;;;;;;5067785;28;20121;-65
2023/01/19 06:04:08;;;;;;;6.57;1.23;;;;;;;;;;5069356;28;20495;-65
2023/01/19 06:06:34;;;;;;;7.93;1.00;;;;;;;;;;5069345;28;20053;-66
2023/01/19 06:09:00;;;;;;;12.60;1.57;;;;;;;;;;5068525;28;20076;-65
2023/01/19 06:11:27;;;;;;;9.43;1.17;;;;;;;;;;5030336;28;20388;-65
2023/01/19 06:13:53;;;;;;;10.50;1.03;;;;;;;;;;5048876;28;20503;-65
2023/01/19 06:16:19;;;;;;;6.73;1.20;;;;;;;;;;5049463;28;20099;-65
2023/01/19 06:18:45;;;;;;;8.70;1.50;;;;;;;;;;5049050;28;20045;-66
2023/01/19 06:21:13;;;;;;;11.40;1.43;;;;;;;;;;5049259;28;20044;-65
2023/01/19 06:23:39;;;;;;;7.60;1.40;;;;;;;;;;5049055;28;20103;-65
2023/01/19 06:26:05;;;;;;;11.40;1.53;;;;;;;;;;5066837;28;20064;-65
2023/01/19 06:28:31;;;;;;;6.03;1.10;;;;;;;;;;5067516;28;20117;-65
2023/01/19 06:30:57;;;;;;;9.17;1.13;;;;;;;;;;5052517;28;20503;-65
2023/01/19 06:33:23;;;;;;;14.67;1.90;;;;;;;;;;5052815;28;20059;-65
2023/01/19 06:35:50;;;;;;;15.60;1.20;;;;;;;;;;5051742;28;20173;-65
2023/01/19 06:38:17;;;;;;;10.83;2.27;;;;;;;;;;5053678;28;20041;-65
2023/01/19 06:40:43;;;;;;;6.87;1.60;;;;;;;;;;5072498;28;20102;-66
2023/01/19 06:43:10;;;;;;;18.17;2.10;;;;;;;;;;5072784;28;20188;-65
2023/01/19 06:45:38;;;;;;;14.90;2.30;;;;;;;;;;5073141;28;20045;-65
2023/01/19 06:48:04;;;;;;;19.83;1.90;;;;;;;;;;5071266;28;20062;-66
2023/01/19 06:50:30;;;;;;;24.77;3.07;;;;;;;;;;5060138;28;20036;-65
2023/01/19 06:52:56;;;;;;;24.03;2.63;;;;;;;;;;5050513;28;20056;-64
2023/01/19 06:55:22;;;;;;;25.10;3.73;;;;;;;;;;5054788;28;20419;-65
2023/01/19 06:57:48;;;;;;;20.00;2.20;;;;;;;;;;5055385;28;20283;-65
2023/01/19 07:00:14;;;;;;;26.73;2.90;;;;;;;;;;5050847;28;20049;-66
2023/01/19 07:02:41;;;;;;;26.03;4.60;;;;;;;;;;5051170;28;20076;-65
2023/01/19 07:05:08;;;;;;;14.57;2.43;;;;;;;;;;5052432;28;20049;-65
2023/01/19 07:07:34;;;;;;;17.73;2.90;;;;;;;;;;5040244;28;20128;-65
2023/01/19 07:10:00;;;;;;;22.57;2.50;;;;;;;;;;5054236;28;20045;-65
2023/01/19 07:12:27;;;;;;;21.30;3.53;;;;;;;;;;5067748;28;20045;-65
2023/01/19 07:14:53;;;;;;;24.13;2.97;;;;;;;;;;5060960;28;20064;-66
2023/01/19 07:17:19;;;;;;;16.73;2.20;;;;;;;;;;5060032;28;20039;-64
2023/01/19 07:19:45;;;;;;;34.13;3.03;;;;;;;;;;5054444;28;20037;-64
2023/01/19 07:22:11;;;;;;;19.83;4.83;;;;;;;;;;5056247;28;20098;-64
2023/01/19 07:24:38;;;;;;;29.83;8.67;;;;;;;;;;5051710;28;20073;-63
2023/01/19 07:27:04;;;;;;;83.33;11.57;;;;;;;;;;5064470;28;20045;-63
2023/01/19 07:29:30;;;;;;;18.47;4.07;;;;;;;;;;5059894;28;20040;-63
2023/01/19 07:31:56;;;;;;;27.23;4.60;;;;;;;;;;5068934;28;20048;-64
2023/01/19 07:34:22;;;;;;;21.27;2.87;;;;;;;;;;5071011;28;20036;-64
2023/01/19 07:36:48;;;;;;;19.23;2.87;;;;;;;;;;5069931;28;20047;-64
2023/01/19 07:39:14;;;;;;;35.77;7.07;;;;;;;;;;5066269;28;20047;-64
2023/01/19 07:41:40;;;;;;;21.63;3.73;;;;;;;;;;5067748;28;20044;-63
2023/01/19 07:44:07;;;;;;;22.63;3.40;;;;;;;;;;5059162;28;20044;-64
2023/01/19 07:46:33;;;;;;;19.30;2.40;;;;;;;;;;5060448;28;20056;-63
2023/01/19 07:48:59;;;;;;;9.37;2.37;;;;;;;;;;5059333;28;20060;-64
2023/01/19 07:51:26;;;;;;;17.47;2.30;;;;;;;;;;5059361;28;20040;-63
2023/01/19 07:53:52;;;;;;;17.80;3.27;;;;;;;;;;5057753;28;20586;-63
2023/01/19 07:56:19;;;;;;;15.33;2.53;;;;;;;;;;5058695;28;20040;-64
2023/01/19 07:58:45;;;;;;;17.10;2.57;;;;;;;;;;5057983;28;20048;-63
2023/01/19 08:01:13;;;;;;;21.50;3.87;;;;;;;;;;5064762;28;20090;-64
2023/01/19 08:03:39;;;;;;;17.03;2.40;;;;;;;;;;5067538;28;20589;-64
2023/01/19 08:06:06;;;;;;;15.77;2.20;;;;;;;;;;5067573;28;20499;-64
2023/01/19 08:08:32;;;;;;;22.07;2.60;;;;;;;;;;5070129;28;20049;-64
2023/01/19 08:10:59;;;;;;;24.20;4.23;;;;;;;;;;5069029;28;20396;-65
2023/01/19 08:13:25;;;;;;;16.33;3.17;;;;;;;;;;5067016;28;20048;-64
2023/01/19 08:15:52;;;;;;;28.37;3.57;;;;;;;;;;5062650;28;20185;-64
2023/01/19 08:18:19;;;;;;;24.30;2.50;;;;;;;;;;5070218;28;20094;-64
2023/01/19 08:20:45;;;;;;;22.03;1.93;;;;;;;;;;5069643;28;20052;-65
2023/01/19 08:23:11;;;;;;;13.97;2.43;;;;;;;;;;5070027;28;20102;-64
2023/01/19 08:25:43;;;;;;;13.37;1.77;;;;;;;;;;5063942;28;20086;-64
2023/01/19 08:28:10;;;;;;;16.93;3.00;;;;;;;;;;5062674;28;20560;-64
2023/01/19 08:30:37;;;;;;;29.23;3.37;;;;;;;;;;5052630;28;20075;-64
2023/01/19 08:33:03;;;;;;;19.93;2.50;;;;;;;;;;5063909;28;20082;-64
2023/01/19 08:35:50;;;;;;;19.53;2.57;;;;;;;;;;5070312;28;20333;-64
2023/01/19 08:38:16;;;;;;;14.37;1.93;;;;;;;;;;5059202;28;20056;-64
2023/01/19 08:40:42;;;;;;;18.87;2.83;;;;;;;;;;5065787;28;20045;-64
2023/01/19 08:43:12;;;;;;;17.40;2.30;;;;;;;;;;5050138;28;20084;-64
2023/01/19 08:45:46;;;;;;;14.90;2.30;;;;;;;;;;5056256;28;20047;-64
2023/01/19 08:48:13;;;;;;;20.67;2.67;;;;;;;;;;5039024;28;20056;-66
2023/01/19 08:50:39;;;;;;;15.07;2.73;;;;;;;;;;5059141;28;20048;-65
2023/01/19 08:53:05;;;;;;;29.50;3.47;;;;;;;;;;5057145;28;20060;-65
2023/01/19 08:55:33;;;;;;;30.10;4.67;;;;;;;;;;5059535;28;20044;-65
2023/01/19 08:58:00;;;;;;;26.90;4.00;;;;;;;;;;5057770;28;20044;-66
2023/01/19 09:00:26;;;;;;;29.33;3.83;;;;;;;;;;5057143;28;20102;-65
2023/01/19 09:02:52;;;;;;;16.93;3.07;;;;;;;;;;5060316;28;20491;-66
2023/01/19 09:05:18;;;;;;;22.80;3.17;;;;;;;;;;5059546;28;20048;-65
2023/01/19 09:07:46;;;;;;;28.37;4.80;;;;;;;;;;5058675;28;20048;-65
2023/01/19 09:10:13;;;;;;;33.57;3.90;;;;;;;;;;5056463;28;20048;-65
2023/01/19 09:12:40;;;;;;;24.93;3.13;;;;;;;;;;5059244;28;20077;-65
2023/01/19 09:15:06;;;;;;;23.17;4.03;;;;;;;;;;5056924;28;20099;-65
2023/01/19 09:17:33;;;;;;;17.83;2.97;;;;;;;;;;5059391;28;20166;-65
2023/01/19 09:19:59;;;;;;;22.30;3.33;;;;;;;;;;5056436;28;20080;-65
2023/01/19 09:22:25;;;;;;;21.90;3.60;;;;;;;;;;5058332;28;20040;-66
2023/01/19 09:24:51;;;;;;;24.20;3.03;;;;;;;;;;5057599;28;20095;-66
2023/01/19 09:27:17;;;;;;;20.80;3.33;;;;;;;;;;5057643;28;20521;-65
2023/01/19 09:29:51;;;;;;;18.77;2.87;;;;;;;;;;5059238;28;20071;-65
2023/01/19 09:32:17;;;;;;;;;;;;;;;;;;5059075;28;20094;-65
2023/01/19 09:34:43;;;;;;;27.10;4.53;;;;;;;;;;5038779;28;20011;-65
2023/01/19 09:37:09;;;;;;;21.17;2.70;;;;;;;;;;5057870;28;20048;-65
2023/01/19 09:39:35;;;;;;;14.63;3.50;;;;;;;;;;5058086;28;20436;-66
2023/01/19 09:42:21;;;;;;;23.00;3.13;;;;;;;;;;5059081;28;20049;-65
2023/01/19 09:44:49;;;;;;;19.70;3.47;;;;;;;;;;5062843;28;20045;-66
2023/01/19 09:47:18;;;;;;;18.07;2.70;;;;;;;;;;5061155;28;20064;-65
2023/01/19 09:49:47;;;;;;;17.07;2.40;;;;;;;;;;5058041;28;20053;-65
2023/01/19 09:52:13;;;;;;;15.83;2.57;;;;;;;;;;5057311;28;20045;-65
2023/01/19 09:54:43;;;;;;;13.07;2.67;;;;;;;;;;5059226;28;20037;-65
2023/01/19 09:57:10;;;;;;;23.27;2.50;;;;;;;;;;5058682;28;20049;-65
2023/01/19 09:59:37;;;;;;;17.83;3.00;;;;;;;;;;5057850;28;20053;-66
2023/01/19 10:02:03;;;;;;;24.37;3.63;;;;;;;;;;5056327;28;20051;-65
2023/01/19 10:04:42;;;;;;;11.83;2.57;;;;;;;;;;5063464;28;20116;-66
2023/01/19 10:07:11;;;;;;;30.83;6.23;;;;;;;;;;5061973;28;20045;-65
2023/01/19 10:09:46;;;;;;;21.03;4.53;;;;;;;;;;5060960;28;20537;-65
2023/01/19 10:12:12;;;;;;;28.07;3.27;;;;;;;;;;5060924;28;20056;-65
2023/01/19 10:14:45;;;;;;;22.93;4.27;;;;;;;;;;5060762;28;20506;-65
2023/01/19 10:17:21;;;;;;;22.50;3.07;;;;;;;;;;5062391;28;20044;-65
2023/01/19 10:19:49;;;;;;;21.80;2.70;;;;;;;;;;5063874;28;20414;-66
2023/01/19 10:22:20;;;;;;;15.60;2.03;;;;;;;;;;5062224;28;20056;-65
2023/01/19 10:24:48;;;;;;;26.30;2.67;;;;;;;;;;5061861;28;20145;-65
2023/01/19 10:27:17;;;;;;;14.27;2.50;;;;;;;;;;5062310;28;20072;-65
2023/01/19 10:29:44;;;;;;;39.83;4.37;;;;;;;;;;5060919;28;20167;-65
2023/01/19 10:32:13;;;;;;;12.67;2.17;;;;;;;;;;5063828;28;20491;-64
2023/01/19 10:34:40;;;;;;;15.67;2.77;;;;;;;;;;5071489;28;20410;-64
2023/01/19 10:37:15;;;;;;;11.10;2.20;;;;;;;;;;5063806;28;20044;-64
2023/01/19 10:39:41;;;;;;;14.23;2.30;;;;;;;;;;5061016;28;20045;-64
2023/01/19 10:42:11;;;;;;;13.37;2.40;;;;;;;;;;5061569;28;20048;-64
2023/01/19 10:44:37;;;;;;;19.70;4.03;;;;;;;;;;5062065;28;20134;-64
2023/01/19 10:47:05;;;;;;;17.03;3.03;;;;;;;;;;5061796;28;20056;-64
2023/01/19 10:49:38;;;;;;;8.47;1.53;;;;;;;;;;5062394;28;20132;-64
2023/01/19 10:52:08;;;;;;;13.32;2.17;;;;;;;;;;5057110;28;20040;-64
2023/01/19 10:54:36;;;;;;;14.80;2.80;;;;;;;;;;5058868;28;20102;-65
2023/01/19 10:57:03;;;;;;;20.63;3.80;;;;;;;;;;5060228;28;20382;-65
2023/01/19 10:59:34;;;;;;;11.10;2.27;;;;;;;;;;5061352;28;20044;-65
2023/01/19 11:02:13;;;;;;;11.80;2.27;;;;;;;;;;5059279;28;20045;-65
2023/01/19 11:04:40;;;;;;;8.87;1.97;;;;;;;;;;5060058;28;20770;-65
2023/01/19 11:07:33;;;;;;;10.80;1.70;;;;;;;;;;5061204;28;20523;-65
2023/01/19 11:10:11;;;;;;;10.73;1.83;;;;;;;;;;5058878;28;20499;-65
2023/01/19 11:12:41;;;;;;;9.63;1.80;;;;;;;;;;5060718;28;20045;-65
2023/01/19 11:15:34;;;;;;;12.40;2.57;;;;;;;;;;5058917;28;20056;-65
2023/01/19 11:18:01;;;;;;;6.83;1.33;;;;;;;;;;5051933;28;20041;-65
2023/01/19 11:20:37;;;;;;;10.17;1.67;;;;;;;;;;5060191;28;20036;-65
2023/01/19 11:23:23;;;;;;;10.87;1.83;;;;;;;;;;5061297;28;20059;-64
2023/01/19 11:25:51;;;;;;;7.60;1.63;;;;;;;;;;5059980;28;20090;-64
2023/01/19 11:28:22;;;;;;;11.07;1.63;;;;;;;;;;5056942;28;20077;-64
2023/01/19 11:30:55;;;;;;;10.43;2.03;;;;;;;;;;5045916;28;20040;-64
2023/01/19 11:33:23;;;;;;;6.30;1.45;;;;;;;;;;5071206;28;20051;-63
2023/01/19 11:35:50;;;;;;;9.80;1.53;;;;;;;;;;5066437;28;20041;-64
2023/01/19 11:38:21;;;;;;;9.83;2.40;;;;;;;;;;5051505;28;20059;-63
2023/01/19 11:40:52;;;;;;;9.17;1.83;;;;;;;;;;5051815;28;20048;-63
2023/01/19 11:43:19;;;;;;;5.40;1.30;;;;;;;;;;5032889;28;20044;-64
2023/01/19 11:45:45;;;;;;;6.07;1.40;;;;;;;;;;5050687;28;20041;-64
2023/01/19 11:48:16;;;;;;;7.77;2.23;;;;;;;;;;5052131;28;20057;-63
2023/01/19 11:50:43;;;;;;;5.40;1.37;;;;;;;;;;5066030;28;20056;-63
2023/01/19 11:53:18;;;;;;;9.73;1.53;;;;;;;;;;5070617;28;20041;-63
2023/01/19 11:55:47;;;;;;;8.50;1.57;;;;;;;;;;5059015;28;20507;-63
2023/01/19 11:58:15;;;;;;;11.37;1.53;;;;;;;;;;5056977;28;20854;-64
2023/01/19 12:00:46;;;;;;;10.97;1.40;;;;;;;;;;5055802;28;20044;-63
2023/01/19 12:03:17;;;;;;;5.37;1.40;;;;;;;;;;5064701;28;20411;-63
2023/01/19 12:05:45;;;;;;;4.60;1.23;;;;;;;;;;5070309;28;20049;-63
2023/01/19 12:08:17;;;;;;;6.23;1.23;;;;;;;;;;5069971;28;20105;-63
2023/01/19 12:10:45;;;;;;;14.37;1.40;;;;;;;;;;5071107;28;20562;-63
2023/01/19 12:13:30;;;;;;;10.03;1.60;;;;;;;;;;5070512;28;20410;-63
2023/01/19 12:16:04;;;;;;;8.27;1.67;;;;;;;;;;5070014;28;20521;-63
2023/01/19 12:18:33;;;;;;;6.67;1.23;;;;;;;;;;5070202;28;20602;-63
2023/01/19 12:21:01;;;;;;;9.17;2.43;;;;;;;;;;5069989;28;20585;-63
2023/01/19 12:23:50;;;;;;;12.70;1.57;;;;;;;;;;5069501;28;20051;-63
2023/01/19 12:26:21;;;;;;;10.20;1.70;;;;;;;;;;5066532;28;20048;-64
2023/01/19 12:28:49;;;;;;;11.33;1.47;;;;;;;;;;5068022;28;20052;-63
2023/01/19 12:31:16;;;;;;;5.67;1.20;;;;;;;;;;5068445;28;20517;-63
2023/01/19 12:33:42;;;;;;;11.57;1.63;;;;;;;;;;5068382;28;20194;-63
2023/01/19 12:36:28;;;;;;;9.03;1.73;;;;;;;;;;5068671;28;20045;-63
2023/01/19 12:39:01;;;;;;;7.53;1.70;;;;;;;;;;5065515;28;20074;-63
2023/01/19 12:41:34;;;;;;;7.65;1.52;;;;;;;;;;5070056;28;20433;-63
2023/01/19 12:44:10;;;;;;;8.43;1.23;;;;;;;;;;5070293;28;20044;-63
2023/01/19 12:46:44;;;;;;;10.07;1.30;;;;;;;;;;5069900;28;20109;-63
2023/01/19 12:49:28;;;;;;;7.97;1.70;;;;;;;;;;5069776;28;20048;-63
2023/01/19 12:52:15;;;;;;;9.50;1.57;;;;;;;;;;5069591;28;21416;-63
2023/01/19 12:54:43;;;;;;;8.90;2.50;;;;;;;;;;5065262;28;20056;-63
2023/01/19 12:57:17;;;;;;;6.67;1.73;;;;;;;;;;5068646;28;20052;-63
2023/01/19 12:59:43;;;;;;;11.50;1.50;;;;;;;;;;5068784;28;20049;-63
2023/01/19 13:02:21;;;;;;;4.47;1.03;;;;;;;;;;5069033;28;20040;-62
2023/01/19 13:05:06;;;;;;;4.07;1.07;;;;;;;;;;5067579;28;20510;-63
2023/01/19 13:07:50;;;;;;;8.37;2.17;;;;;;;;;;5063261;28;20127;-63
2023/01/19 13:10:35;;;;;;;7.37;1.40;;;;;;;;;;5060530;28;20499;-63
2023/01/19 13:13:36;;;;;;;6.03;1.30;;;;;;;;;;5056955;28;20073;-63
2023/01/19 13:16:18;;;;;;;5.23;1.13;;;;;;;;;;5017767;28;20340;-63
2023/01/19 13:18:47;;;;;;;5.97;1.07;;;;;;;;;;5053751;28;20131;-62
2023/01/19 13:21:14;;;;;;;6.90;1.07;;;;;;;;;;5058525;28;20057;-63
2023/01/19 13:23:49;;;;;;;8.07;1.30;;;;;;;;;;5058327;28;20044;-63
2023/01/19 13:26:16;;;;;;;6.40;1.50;;;;;;;;;;5058082;28;20390;-63
2023/01/19 13:28:43;;;;;;;6.73;1.47;;;;;;;;;;5057895;28;20166;-64
2023/01/19 13:31:10;;;;;;;13.90;2.10;;;;;;;;;;5059540;28;20040;-64
2023/01/19 13:33:39;;;;;;;9.50;1.50;;;;;;;;;;5054511;28;20045;-62
2023/01/19 13:36:12;;;;;;;7.17;1.30;;;;;;;;;;5051302;28;20052;-62
2023/01/19 13:38:40;;;;;;;14.95;1.77;;;;;;;;;;5056851;28;20388;-62
2023/01/19 13:41:06;;;;;;;8.03;1.73;;;;;;;;;;5060628;28;20049;-62
2023/01/19 13:43:36;;;;;;;8.03;1.60;;;;;;;;;;5059884;28;20666;-62
2023/01/19 13:46:03;;;;;;;8.23;2.70;;;;;;;;;;5056084;28;20044;-64
2023/01/19 13:48:30;;;;;;;8.70;1.20;;;;;;;;;;5060150;28;20049;-63
2023/01/19 13:51:06;;;;;;;10.57;3.63;;;;;;;;;;5054260;28;20505;-63
2023/01/19 13:53:34;;;;;;;6.97;1.43;;;;;;;;;;5051608;28;20645;-64
2023/01/19 13:56:17;;;;;;;4.50;1.23;;;;;;;;;;5050890;28;20522;-64
2023/01/19 13:58:43;;;;;;;11.88;1.45;;;;;;;;;;5052047;28;20274;-63
2023/01/19 14:01:22;;;;;;;12.13;1.30;;;;;;;;;;5067402;28;20041;-63
2023/01/19 14:03:51;;;;;;;11.53;1.60;;;;;;;;;;5059060;28;20045;-64
2023/01/19 14:06:43;;;;;;;6.80;1.53;;;;;;;;;;5059387;28;20051;-63
2023/01/19 14:09:15;;;;;;;9.00;1.10;;;;;;;;;;5059493;28;20041;-63
2023/01/19 14:11:41;;;;;;;10.50;1.67;;;;;;;;;;5046401;28;20451;-63
2023/01/19 14:14:21;;;;;;;6.97;1.13;;;;;;;;;;5052681;28;20409;-63
2023/01/19 14:16:47;;;;;;;19.80;3.23;;;;;;;;;;5049306;28;20056;-63
2023/01/19 14:19:13;;;;;;;5.60;1.20;;;;;;;;;;5065357;28;20041;-63
2023/01/19 14:21:39;;;;;;;8.10;1.33;;;;;;;;;;5051816;28;20040;-63
2023/01/19 14:24:10;;;;;;;5.87;1.00;;;;;;;;;;5067042;28;20044;-63
2023/01/19 14:26:44;;;;;;;6.90;1.63;;;;;;;;;;5059891;28;20041;-63
2023/01/19 14:29:27;;;;;;;7.00;1.43;;;;;;;;;;5046990;28;20045;-63
2023/01/19 14:32:02;;;;;;;6.93;1.20;;;;;;;;;;5053943;28;20041;-64
2023/01/19 14:34:32;;;;;;;5.07;1.20;;;;;;;;;;5048486;28;20522;-63
2023/01/19 14:37:01;;;;;;;5.43;0.93;;;;;;;;;;5048429;28;20045;-63
2023/01/19 14:39:32;;;;;;;6.30;1.30;;;;;;;;;;5047158;28;20076;-63
2023/01/19 14:41:59;;;;;;;4.20;1.20;;;;;;;;;;5047003;28;20057;-63
2023/01/19 14:44:26;;;;;;;8.07;1.50;;;;;;;;;;5048409;28;20537;-64
2023/01/19 14:46:52;;;;;;;5.10;1.20;;;;;;;;;;5052168;28;20491;-63
2023/01/19 14:49:26;;;;;;;7.80;1.30;;;;;;;;;;5063491;28;20052;-63
2023/01/19 14:51:51;;;;;;;;;;;;;;;;;;5072318;28;20037;-63
2023/01/19 14:54:26;;;;;;;6.33;1.23;;;;;;;;;;5071512;28;19921;-64